sensor_id;sensor_type;location;lat;lon;timestamp;pressure;altitude;pressure_sealevel;temperature
62107;BMP280;48087;32.600;-97.100;2022-08-21T00:01:29;;;;32.2219
62107;BMP280;48087;32.600;-97.100;2022-08-21T00:06:34;;;;32.166345
62107;BMP280;48087;32.600;-97.100;2022-08-21T00:11:38;;;;31.999679999999998
62107;BMP280;48087;32.600;-97.100;2022-08-21T00:16:42;;;;31.88857
62107;BMP280;48087;32.600;-97.100;2022-08-21T00:21:45;;;;31.77746
62107;BMP280;48087;32.600;-97.100;2022-08-21T00:27:05;;;;31.721904999999996
62107;BMP280;48087;32.600;-97.100;2022-08-21T00:32:09;;;;31.610795000000003
62107;BMP280;48087;32.600;-97.100;2022-08-21T00:37:15;;;;31.555239999999998
62107;BMP280;48087;32.600;-97.100;2022-08-21T00:42:17;;;;31.444129999999998
62107;BMP280;48087;32.600;-97.100;2022-08-21T00:47:22;;;;31.33302
62107;BMP280;48087;32.600;-97.100;2022-08-21T00:52:22;;;;31.277465
62107;BMP280;48087;32.600;-97.100;2022-08-21T00:57:30;;;;31.22191
62107;BMP280;48087;32.600;-97.100;2022-08-21T01:02:33;;;;30.944135
62107;BMP280;48087;32.600;-97.100;2022-08-21T01:07:38;;;;30.55525
62107;BMP280;48087;32.600;-97.100;2022-08-21T01:12:41;;;;30.333029999999997
62107;BMP280;48087;32.600;-97.100;2022-08-21T01:17:46;;;;30.055254999999995
62107;BMP280;48087;32.600;-97.100;2022-08-21T01:22:49;;;;29.833035000000002
62107;BMP280;48087;32.600;-97.100;2022-08-21T01:27:53;;;;29.610815
62107;BMP280;48087;32.600;-97.100;2022-08-21T01:32:57;;;;29.333039999999997
62107;BMP280;48087;32.600;-97.100;2022-08-21T01:38:02;;;;28.944154999999995
62107;BMP280;48087;32.600;-97.100;2022-08-21T01:43:05;;;;28.555270000000004
62107;BMP280;48087;32.600;-97.100;2022-08-21T01:48:10;;;;28.277495000000002
62107;BMP280;48087;32.600;-97.100;2022-08-21T01:53:13;;;;28.110829999999996
62107;BMP280;48087;32.600;-97.100;2022-08-21T01:58:18;;;;27.944164999999998
62107;BMP280;48087;32.600;-97.100;2022-08-21T02:03:21;;;;27.7775
62107;BMP280;48087;32.600;-97.100;2022-08-21T02:08:27;;;;27.721945
62107;BMP280;48087;32.600;-97.100;2022-08-21T02:13:29;;;;27.666389999999996
62107;BMP280;48087;32.600;-97.100;2022-08-21T02:18:34;;;;27.555279999999996
62107;BMP280;48087;32.600;-97.100;2022-08-21T02:23:37;;;;27.499724999999998
62107;BMP280;48087;32.600;-97.100;2022-08-21T02:28:41;;;;27.444170000000003
62107;BMP280;48087;32.600;-97.100;2022-08-21T02:33:45;;;;27.444170000000003
62107;BMP280;48087;32.600;-97.100;2022-08-21T02:38:50;;;;27.388614999999998
62107;BMP280;48087;32.600;-97.100;2022-08-21T02:43:53;;;;27.33306
62107;BMP280;48087;32.600;-97.100;2022-08-21T02:48:57;;;;27.277504999999998
62107;BMP280;48087;32.600;-97.100;2022-08-21T02:54:01;;;;27.277504999999998
62107;BMP280;48087;32.600;-97.100;2022-08-21T02:59:05;;;;27.22195
62107;BMP280;48087;32.600;-97.100;2022-08-21T03:04:09;;;;27.22195
62107;BMP280;48087;32.600;-97.100;2022-08-21T03:09:14;;;;27.22195
62107;BMP280;48087;32.600;-97.100;2022-08-21T03:14:17;;;;27.11084
62107;BMP280;48087;32.600;-97.100;2022-08-21T03:19:21;;;;27.11084
62107;BMP280;48087;32.600;-97.100;2022-08-21T03:24:25;;;;26.999729999999996
62107;BMP280;48087;32.600;-97.100;2022-08-21T03:29:29;;;;26.888620000000003
62107;BMP280;48087;32.600;-97.100;2022-08-21T03:34:33;;;;26.77751
62107;BMP280;48087;32.600;-97.100;2022-08-21T03:39:37;;;;26.721954999999998
62107;BMP280;48087;32.600;-97.100;2022-08-21T03:44:56;;;;26.610845
62107;BMP280;48087;32.600;-97.100;2022-08-21T03:50:02;;;;26.499735
62107;BMP280;48087;32.600;-97.100;2022-08-21T03:55:05;;;;26.499735
62107;BMP280;48087;32.600;-97.100;2022-08-21T04:00:10;;;;26.388625
62107;BMP280;48087;32.600;-97.100;2022-08-21T04:05:14;;;;26.388625
62107;BMP280;48087;32.600;-97.100;2022-08-21T04:10:18;;;;26.277514999999998
62107;BMP280;48087;32.600;-97.100;2022-08-21T04:15:21;;;;26.277514999999998
62107;BMP280;48087;32.600;-97.100;2022-08-21T04:20:25;;;;26.22196
62107;BMP280;48087;32.600;-97.100;2022-08-21T04:25:30;;;;26.22196
62107;BMP280;48087;32.600;-97.100;2022-08-21T04:30:33;;;;26.22196
62107;BMP280;48087;32.600;-97.100;2022-08-21T04:35:38;;;;26.277514999999998
62107;BMP280;48087;32.600;-97.100;2022-08-21T04:40:41;;;;26.22196
62107;BMP280;48087;32.600;-97.100;2022-08-21T04:45:46;;;;26.277514999999998
62107;BMP280;48087;32.600;-97.100;2022-08-21T04:50:49;;;;26.22196
62107;BMP280;48087;32.600;-97.100;2022-08-21T04:55:54;;;;26.22196
62107;BMP280;48087;32.600;-97.100;2022-08-21T05:00:57;;;;26.166404999999997
62107;BMP280;48087;32.600;-97.100;2022-08-21T05:06:02;;;;26.11085
62107;BMP280;48087;32.600;-97.100;2022-08-21T05:11:06;;;;26.055295
62107;BMP280;48087;32.600;-97.100;2022-08-21T05:16:09;;;;26.055295
62107;BMP280;48087;32.600;-97.100;2022-08-21T05:21:12;;;;26.055295
62107;BMP280;48087;32.600;-97.100;2022-08-21T05:26:17;;;;26.055295
62107;BMP280;48087;32.600;-97.100;2022-08-21T05:31:21;;;;25.99974
62107;BMP280;48087;32.600;-97.100;2022-08-21T05:36:25;;;;25.99974
62107;BMP280;48087;32.600;-97.100;2022-08-21T05:41:29;;;;26.055295
62107;BMP280;48087;32.600;-97.100;2022-08-21T05:46:33;;;;26.055295
62107;BMP280;48087;32.600;-97.100;2022-08-21T05:51:39;;;;26.055295
62107;BMP280;48087;32.600;-97.100;2022-08-21T05:56:41;;;;25.99974
62107;BMP280;48087;32.600;-97.100;2022-08-21T06:01:45;;;;25.944185
62107;BMP280;48087;32.600;-97.100;2022-08-21T06:06:48;;;;25.944185
62107;BMP280;48087;32.600;-97.100;2022-08-21T06:11:53;;;;25.833075
62107;BMP280;48087;32.600;-97.100;2022-08-21T06:17:02;;;;25.833075
62107;BMP280;48087;32.600;-97.100;2022-08-21T06:22:00;;;;25.721964999999997
62107;BMP280;48087;32.600;-97.100;2022-08-21T06:27:05;;;;25.721964999999997
62107;BMP280;48087;32.600;-97.100;2022-08-21T06:32:10;;;;25.721964999999997
62107;BMP280;48087;32.600;-97.100;2022-08-21T06:37:13;;;;25.721964999999997
62107;BMP280;48087;32.600;-97.100;2022-08-21T06:42:16;;;;25.610854999999997
62107;BMP280;48087;32.600;-97.100;2022-08-21T06:47:21;;;;25.610854999999997
62107;BMP280;48087;32.600;-97.100;2022-08-21T06:52:25;;;;25.5553
62107;BMP280;48087;32.600;-97.100;2022-08-21T06:57:28;;;;25.5553
62107;BMP280;48087;32.600;-97.100;2022-08-21T07:02:33;;;;25.5553
62107;BMP280;48087;32.600;-97.100;2022-08-21T07:07:37;;;;25.5553
62107;BMP280;48087;32.600;-97.100;2022-08-21T07:12:40;;;;25.5553
62107;BMP280;48087;32.600;-97.100;2022-08-21T07:17:44;;;;25.5553
62107;BMP280;48087;32.600;-97.100;2022-08-21T07:22:48;;;;25.5553
62107;BMP280;48087;32.600;-97.100;2022-08-21T07:27:53;;;;25.610854999999997
62107;BMP280;48087;32.600;-97.100;2022-08-21T07:32:56;;;;25.5553
62107;BMP280;48087;32.600;-97.100;2022-08-21T07:38:01;;;;25.5553
62107;BMP280;48087;32.600;-97.100;2022-08-21T07:43:05;;;;25.44419
62107;BMP280;48087;32.600;-97.100;2022-08-21T07:48:09;;;;25.499745000000004
62107;BMP280;48087;32.600;-97.100;2022-08-21T07:53:13;;;;25.44419
62107;BMP280;48087;32.600;-97.100;2022-08-21T07:58:16;;;;25.388635
62107;BMP280;48087;32.600;-97.100;2022-08-21T08:03:21;;;;25.388635
62107;BMP280;48087;32.600;-97.100;2022-08-21T08:08:24;;;;25.388635
62107;BMP280;48087;32.600;-97.100;2022-08-21T08:13:29;;;;25.388635
62107;BMP280;48087;32.600;-97.100;2022-08-21T08:18:32;;;;25.388635
62107;BMP280;48087;32.600;-97.100;2022-08-21T08:23:37;;;;25.388635
62107;BMP280;48087;32.600;-97.100;2022-08-21T08:28:40;;;;25.388635
62107;BMP280;48087;32.600;-97.100;2022-08-21T08:33:44;;;;25.333079999999995
62107;BMP280;48087;32.600;-97.100;2022-08-21T08:38:48;;;;25.44419
62107;BMP280;48087;32.600;-97.100;2022-08-21T08:43:55;;;;25.499745000000004
62107;BMP280;48087;32.600;-97.100;2022-08-21T08:48:57;;;;25.5553
62107;BMP280;48087;32.600;-97.100;2022-08-21T08:54:01;;;;25.5553
62107;BMP280;48087;32.600;-97.100;2022-08-21T08:59:06;;;;25.5553
62107;BMP280;48087;32.600;-97.100;2022-08-21T09:04:09;;;;25.610854999999997
62107;BMP280;48087;32.600;-97.100;2022-08-21T09:09:17;;;;25.610854999999997
62107;BMP280;48087;32.600;-97.100;2022-08-21T09:14:20;;;;25.610854999999997
62107;BMP280;48087;32.600;-97.100;2022-08-21T09:19:25;;;;25.5553
62107;BMP280;48087;32.600;-97.100;2022-08-21T09:24:27;;;;25.5553
62107;BMP280;48087;32.600;-97.100;2022-08-21T09:29:28;;;;25.5553
62107;BMP280;48087;32.600;-97.100;2022-08-21T09:34:32;;;;25.499745000000004
62107;BMP280;48087;32.600;-97.100;2022-08-21T09:39:37;;;;25.499745000000004
62107;BMP280;48087;32.600;-97.100;2022-08-21T09:44:41;;;;25.388635
62107;BMP280;48087;32.600;-97.100;2022-08-21T09:49:44;;;;25.44419
62107;BMP280;48087;32.600;-97.100;2022-08-21T09:54:49;;;;25.388635
62107;BMP280;48087;32.600;-97.100;2022-08-21T09:59:51;;;;25.388635
62107;BMP280;48087;32.600;-97.100;2022-08-21T10:04:59;;;;25.333079999999995
62107;BMP280;48087;32.600;-97.100;2022-08-21T10:10:01;;;;25.277525
62107;BMP280;48087;32.600;-97.100;2022-08-21T10:15:07;;;;25.277525
62107;BMP280;48087;32.600;-97.100;2022-08-21T10:20:09;;;;25.277525
62107;BMP280;48087;32.600;-97.100;2022-08-21T10:25:14;;;;25.221970000000002
62107;BMP280;48087;32.600;-97.100;2022-08-21T10:30:18;;;;25.221970000000002
62107;BMP280;48087;32.600;-97.100;2022-08-21T10:35:22;;;;25.221970000000002
62107;BMP280;48087;32.600;-97.100;2022-08-21T10:40:25;;;;25.221970000000002
62107;BMP280;48087;32.600;-97.100;2022-08-21T10:45:32;;;;25.221970000000002
62107;BMP280;48087;32.600;-97.100;2022-08-21T10:50:34;;;;25.221970000000002
62107;BMP280;48087;32.600;-97.100;2022-08-21T10:55:36;;;;25.221970000000002
62107;BMP280;48087;32.600;-97.100;2022-08-21T11:00:41;;;;25.110860000000002
62107;BMP280;48087;32.600;-97.100;2022-08-21T11:05:44;;;;25.055304999999997
62107;BMP280;48087;32.600;-97.100;2022-08-21T11:10:49;;;;25.055304999999997
62107;BMP280;48087;32.600;-97.100;2022-08-21T11:15:54;;;;24.99975
62107;BMP280;48087;32.600;-97.100;2022-08-21T11:20:59;;;;24.944195000000004
62107;BMP280;48087;32.600;-97.100;2022-08-21T11:26:02;;;;24.99975
62107;BMP280;48087;32.600;-97.100;2022-08-21T11:31:09;;;;24.944195000000004
62107;BMP280;48087;32.600;-97.100;2022-08-21T11:36:09;;;;24.88864
62107;BMP280;48087;32.600;-97.100;2022-08-21T11:41:13;;;;24.88864
62107;BMP280;48087;32.600;-97.100;2022-08-21T11:46:29;;;;24.833085
62107;BMP280;48087;32.600;-97.100;2022-08-21T11:51:20;;;;24.721975
62107;BMP280;48087;32.600;-97.100;2022-08-21T11:57:13;;;;24.721975
62107;BMP280;48087;32.600;-97.100;2022-08-21T12:02:16;;;;24.721975
62107;BMP280;48087;32.600;-97.100;2022-08-21T12:07:28;;;;24.721975
62107;BMP280;48087;32.600;-97.100;2022-08-21T12:12:24;;;;24.666420000000002
62107;BMP280;48087;32.600;-97.100;2022-08-21T12:17:34;;;;24.666420000000002
62107;BMP280;48087;32.600;-97.100;2022-08-21T12:22:38;;;;24.721975
62107;BMP280;48087;32.600;-97.100;2022-08-21T12:27:41;;;;24.721975
62107;BMP280;48087;32.600;-97.100;2022-08-21T12:32:43;;;;24.721975
62107;BMP280;48087;32.600;-97.100;2022-08-21T12:37:44;;;;24.777529999999995
62107;BMP280;48087;32.600;-97.100;2022-08-21T12:42:48;;;;24.777529999999995
62107;BMP280;48087;32.600;-97.100;2022-08-21T12:47:54;;;;24.777529999999995
62107;BMP280;48087;32.600;-97.100;2022-08-21T12:52:57;;;;24.777529999999995
62107;BMP280;48087;32.600;-97.100;2022-08-21T12:58:00;;;;24.833085
62107;BMP280;48087;32.600;-97.100;2022-08-21T13:03:03;;;;24.88864
62107;BMP280;48087;32.600;-97.100;2022-08-21T13:08:09;;;;24.944195000000004
62107;BMP280;48087;32.600;-97.100;2022-08-21T13:13:12;;;;24.88864
62107;BMP280;48087;32.600;-97.100;2022-08-21T13:18:24;;;;24.99975
62107;BMP280;48087;32.600;-97.100;2022-08-21T13:23:20;;;;25.110860000000002
62107;BMP280;48087;32.600;-97.100;2022-08-21T13:28:25;;;;25.44419
62107;BMP280;48087;32.600;-97.100;2022-08-21T13:33:27;;;;26.166404999999997
62107;BMP280;48087;32.600;-97.100;2022-08-21T13:38:33;;;;26.499735
62107;BMP280;48087;32.600;-97.100;2022-08-21T13:43:35;;;;26.888620000000003
62107;BMP280;48087;32.600;-97.100;2022-08-21T13:48:40;;;;27.055285
62107;BMP280;48087;32.600;-97.100;2022-08-21T13:53:45;;;;27.22195
62107;BMP280;48087;32.600;-97.100;2022-08-21T13:58:48;;;;27.277504999999998
62107;BMP280;48087;32.600;-97.100;2022-08-21T14:03:51;;;;26.944174999999998
62107;BMP280;48087;32.600;-97.100;2022-08-21T14:09:12;;;;27.666389999999996
62107;BMP280;48087;32.600;-97.100;2022-08-21T14:14:16;;;;27.610835
62107;BMP280;48087;32.600;-97.100;2022-08-21T14:19:21;;;;28.110829999999996
62107;BMP280;48087;32.600;-97.100;2022-08-21T14:24:27;;;;28.610825
62107;BMP280;48087;32.600;-97.100;2022-08-21T14:29:31;;;;28.721935000000002
62107;BMP280;48087;32.600;-97.100;2022-08-21T14:34:31;;;;28.499715
62107;BMP280;48087;32.600;-97.100;2022-08-21T14:39:35;;;;29.055265
62107;BMP280;48087;32.600;-97.100;2022-08-21T14:44:40;;;;29.221929999999997
62107;BMP280;48087;32.600;-97.100;2022-08-21T14:49:43;;;;28.99971
62107;BMP280;48087;32.600;-97.100;2022-08-21T14:54:47;;;;28.721935000000002
62107;BMP280;48087;32.600;-97.100;2022-08-21T14:59:51;;;;28.610825
62107;BMP280;48087;32.600;-97.100;2022-08-21T15:04:56;;;;29.166375
62107;BMP280;48087;32.600;-97.100;2022-08-21T15:10:00;;;;29.221929999999997
62107;BMP280;48087;32.600;-97.100;2022-08-21T15:15:04;;;;29.277485000000002
62107;BMP280;48087;32.600;-97.100;2022-08-21T15:20:07;;;;29.721925
62107;BMP280;48087;32.600;-97.100;2022-08-21T15:25:11;;;;30.11081
62107;BMP280;48087;32.600;-97.100;2022-08-21T15:30:15;;;;29.888589999999997
62107;BMP280;48087;32.600;-97.100;2022-08-21T15:35:19;;;;30.277475
62107;BMP280;48087;32.600;-97.100;2022-08-21T15:40:24;;;;29.888589999999997
62107;BMP280;48087;32.600;-97.100;2022-08-21T15:45:27;;;;30.721915
62107;BMP280;48087;32.600;-97.100;2022-08-21T15:50:30;;;;30.277475
62107;BMP280;48087;32.600;-97.100;2022-08-21T15:55:35;;;;30.499695000000003
62107;BMP280;48087;32.600;-97.100;2022-08-21T16:00:38;;;;30.55525
62107;BMP280;48087;32.600;-97.100;2022-08-21T16:05:43;;;;30.499695000000003
62107;BMP280;48087;32.600;-97.100;2022-08-21T16:10:46;;;;30.66636
62107;BMP280;48087;32.600;-97.100;2022-08-21T16:15:52;;;;30.55525
62107;BMP280;48087;32.600;-97.100;2022-08-21T16:20:54;;;;30.888579999999997
62107;BMP280;48087;32.600;-97.100;2022-08-21T16:25:58;;;;31.277465
62107;BMP280;48087;32.600;-97.100;2022-08-21T16:31:02;;;;31.110799999999998
62107;BMP280;48087;32.600;-97.100;2022-08-21T16:36:08;;;;31.388575
62107;BMP280;48087;32.600;-97.100;2022-08-21T16:41:11;;;;31.610795000000003
62107;BMP280;48087;32.600;-97.100;2022-08-21T16:46:15;;;;31.721904999999996
62107;BMP280;48087;32.600;-97.100;2022-08-21T16:51:18;;;;31.666349999999998
62107;BMP280;48087;32.600;-97.100;2022-08-21T16:56:23;;;;31.721904999999996
62107;BMP280;48087;32.600;-97.100;2022-08-21T17:01:27;;;;31.666349999999998
62107;BMP280;48087;32.600;-97.100;2022-08-21T17:06:31;;;;31.77746
62107;BMP280;48087;32.600;-97.100;2022-08-21T17:11:35;;;;32.110789999999994
62107;BMP280;48087;32.600;-97.100;2022-08-21T17:16:39;;;;31.721904999999996
62107;BMP280;48087;32.600;-97.100;2022-08-21T17:21:42;;;;32.33301
62107;BMP280;48087;32.600;-97.100;2022-08-21T17:26:47;;;;32.99967
62107;BMP280;48087;32.600;-97.100;2022-08-21T17:31:50;;;;32.721895
62107;BMP280;48087;32.600;-97.100;2022-08-21T17:36:54;;;;32.2219
62107;BMP280;48087;32.600;-97.100;2022-08-21T17:41:59;;;;32.444120000000005
62107;BMP280;48087;32.600;-97.100;2022-08-21T17:47:02;;;;32.444120000000005
62107;BMP280;48087;32.600;-97.100;2022-08-21T17:52:06;;;;32.499674999999996
62107;BMP280;48087;32.600;-97.100;2022-08-21T17:57:11;;;;33.333
62107;BMP280;48087;32.600;-97.100;2022-08-21T18:02:14;;;;33.221889999999995
62107;BMP280;48087;32.600;-97.100;2022-08-21T18:07:18;;;;32.388565
62107;BMP280;48087;32.600;-97.100;2022-08-21T18:12:22;;;;33.221889999999995
62107;BMP280;48087;32.600;-97.100;2022-08-21T18:17:26;;;;33.88855
62107;BMP280;48087;32.600;-97.100;2022-08-21T18:22:30;;;;33.721885
62107;BMP280;48087;32.600;-97.100;2022-08-21T18:27:35;;;;33.499665
62107;BMP280;48087;32.600;-97.100;2022-08-21T18:32:38;;;;33.666329999999995
62107;BMP280;48087;32.600;-97.100;2022-08-21T18:37:42;;;;33.166335000000004
62107;BMP280;48087;32.600;-97.100;2022-08-21T18:42:46;;;;33.11078
62107;BMP280;48087;32.600;-97.100;2022-08-21T18:47:51;;;;32.83300499999999
62107;BMP280;48087;32.600;-97.100;2022-08-21T18:52:54;;;;32.721895
62107;BMP280;48087;32.600;-97.100;2022-08-21T18:57:58;;;;33.721885
62107;BMP280;48087;32.600;-97.100;2022-08-21T19:03:02;;;;33.499665
62107;BMP280;48087;32.600;-97.100;2022-08-21T19:08:07;;;;33.94410499999999
62107;BMP280;48087;32.600;-97.100;2022-08-21T19:13:11;;;;33.721885
62107;BMP280;48087;32.600;-97.100;2022-08-21T19:18:15;;;;33.666329999999995
62107;BMP280;48087;32.600;-97.100;2022-08-21T19:23:19;;;;33.721885
62107;BMP280;48087;32.600;-97.100;2022-08-21T19:28:25;;;;32.33301
62107;BMP280;48087;32.600;-97.100;2022-08-21T19:33:28;;;;31.33302
62107;BMP280;48087;32.600;-97.100;2022-08-21T19:38:30;;;;30.77747
62107;BMP280;48087;32.600;-97.100;2022-08-21T19:43:36;;;;29.888589999999997
62107;BMP280;48087;32.600;-97.100;2022-08-21T19:48:38;;;;28.721935000000002
62107;BMP280;48087;32.600;-97.100;2022-08-21T19:53:43;;;;26.388625
62107;BMP280;48087;32.600;-97.100;2022-08-21T19:58:47;;;;25.666410000000003
62107;BMP280;48087;32.600;-97.100;2022-08-21T20:03:50;;;;25.44419
62107;BMP280;48087;32.600;-97.100;2022-08-21T20:08:54;;;;25.5553
62107;BMP280;48087;32.600;-97.100;2022-08-21T20:13:59;;;;25.777520000000003
62107;BMP280;48087;32.600;-97.100;2022-08-21T20:19:03;;;;26.055295
62107;BMP280;48087;32.600;-97.100;2022-08-21T20:24:06;;;;26.888620000000003
62107;BMP280;48087;32.600;-97.100;2022-08-21T20:29:10;;;;27.721945
62107;BMP280;48087;32.600;-97.100;2022-08-21T20:34:30;;;;28.221939999999996
62107;BMP280;48087;32.600;-97.100;2022-08-21T20:39:35;;;;28.388604999999995
62107;BMP280;48087;32.600;-97.100;2022-08-21T20:44:38;;;;28.44416
62107;BMP280;48087;32.600;-97.100;2022-08-21T20:49:44;;;;28.44416
62107;BMP280;48087;32.600;-97.100;2022-08-21T20:54:47;;;;28.166385000000002
62107;BMP280;48087;32.600;-97.100;2022-08-21T20:59:50;;;;27.7775
62107;BMP280;48087;32.600;-97.100;2022-08-21T21:04:56;;;;27.555279999999996
62107;BMP280;48087;32.600;-97.100;2022-08-21T21:09:59;;;;27.166395
62107;BMP280;48087;32.600;-97.100;2022-08-21T21:15:04;;;;27.166395
62107;BMP280;48087;32.600;-97.100;2022-08-21T21:20:07;;;;27.166395
62107;BMP280;48087;32.600;-97.100;2022-08-21T21:25:12;;;;27.11084
62107;BMP280;48087;32.600;-97.100;2022-08-21T21:30:14;;;;27.055285
62107;BMP280;48087;32.600;-97.100;2022-08-21T21:35:19;;;;27.166395
62107;BMP280;48087;32.600;-97.100;2022-08-21T21:40:25;;;;27.11084
62107;BMP280;48087;32.600;-97.100;2022-08-21T21:45:27;;;;27.055285
62107;BMP280;48087;32.600;-97.100;2022-08-21T21:50:34;;;;27.11084
62107;BMP280;48087;32.600;-97.100;2022-08-21T21:55:39;;;;26.833064999999998
62107;BMP280;48087;32.600;-97.100;2022-08-21T22:00:39;;;;26.888620000000003
62107;BMP280;48087;32.600;-97.100;2022-08-21T22:05:54;;;;26.888620000000003
62107;BMP280;48087;32.600;-97.100;2022-08-21T22:10:47;;;;26.888620000000003
62107;BMP280;48087;32.600;-97.100;2022-08-21T22:15:50;;;;26.944174999999998
62107;BMP280;48087;32.600;-97.100;2022-08-21T22:20:55;;;;27.11084
62107;BMP280;48087;32.600;-97.100;2022-08-21T22:26:01;;;;27.277504999999998
62107;BMP280;48087;32.600;-97.100;2022-08-21T22:31:11;;;;27.499724999999998
62107;BMP280;48087;32.600;-97.100;2022-08-21T22:36:13;;;;27.721945
62107;BMP280;48087;32.600;-97.100;2022-08-21T22:41:11;;;;27.7775
62107;BMP280;48087;32.600;-97.100;2022-08-21T22:46:16;;;;28.110829999999996
62107;BMP280;48087;32.600;-97.100;2022-08-21T22:51:25;;;;28.33305
62107;BMP280;48087;32.600;-97.100;2022-08-21T22:56:27;;;;28.110829999999996
62107;BMP280;48087;32.600;-97.100;2022-08-21T23:01:32;;;;27.833054999999995
62107;BMP280;48087;32.600;-97.100;2022-08-21T23:06:30;;;;27.7775
62107;BMP280;48087;32.600;-97.100;2022-08-21T23:11:36;;;;27.610835
62107;BMP280;48087;32.600;-97.100;2022-08-21T23:16:40;;;;27.499724999999998
62107;BMP280;48087;32.600;-97.100;2022-08-21T23:21:45;;;;27.277504999999998
62107;BMP280;48087;32.600;-97.100;2022-08-21T23:26:48;;;;27.22195
62107;BMP280;48087;32.600;-97.100;2022-08-21T23:31:51;;;;27.166395
62107;BMP280;48087;32.600;-97.100;2022-08-21T23:36:58;;;;27.166395
62107;BMP280;48087;32.600;-97.100;2022-08-21T23:41:58;;;;27.11084
62107;BMP280;48087;32.600;-97.100;2022-08-21T23:47:04;;;;27.11084
62107;BMP280;48087;32.600;-97.100;2022-08-21T23:52:08;;;;27.11084
62107;BMP280;48087;32.600;-97.100;2022-08-21T23:57:13;;;;27.11084
